Time;durP1;ratioP1;P1;durP2;ratioP2;P2;SDS_P1;SDS_P2;PMS_P1;PMS_P2;Temp;Humidity;BMP_temperature;BMP_pressure;BME280_temperature;BME280_humidity;BME280_pressure;Samples;Min_cycle;Max_cycle;Signal;HPM_P1;HPM_P2
2024/02/13 00:00:20;;;;;;;;;10.00;8.00;;;;;7.43;99.39;99384.21;112458;241;161237;-52
2024/02/13 00:03:14;;;;;;;;;9.00;8.00;;;;;7.43;99.41;99388.41;112868;242;39954;-51
2024/02/13 00:05:51;;;;;;;;;10.25;9.00;;;;;7.42;99.23;99389.08;112963;242;39060;-50
2024/02/13 00:08:31;;;;;;;;;12.00;10.00;;;;;7.41;99.10;99394.61;112873;241;160899;-55
2024/02/13 00:11:13;;;;;;;;;9.75;8.00;;;;;7.38;98.95;99397.51;113009;242;41147;-54
2024/02/13 00:13:51;;;;;;;;;11.00;8.00;;;;;7.35;98.92;99398.35;112835;240;160750;-53
2024/02/13 00:16:27;;;;;;;;;13.00;8.00;;;;;7.27;98.88;99398.48;113001;241;41069;-50
2024/02/13 00:19:01;;;;;;;;;3.75;3.25;;;;;7.23;98.86;99401.55;112825;241;160400;-49
2024/02/13 00:21:35;;;;;;;;;9.33;7.00;;;;;7.18;98.72;99407.49;112918;242;39004;-51
2024/02/13 00:24:10;;;;;;;;;6.00;4.00;;;;;7.14;98.82;99406.38;112962;242;40728;-52
2024/02/13 00:26:47;;;;;;;;;8.00;5.33;;;;;7.12;98.78;99407.05;112952;241;39838;-51
2024/02/13 00:29:24;;;;;;;;;7.50;5.00;;;;;7.11;98.66;99411.77;113019;241;39704;-51
2024/02/13 00:32:06;;;;;;;;;10.50;8.00;;;;;7.12;98.76;99415.98;112829;240;160964;-54
2024/02/13 00:34:44;;;;;;;;;5.25;4.25;;;;;7.12;98.69;99418.99;113018;241;38964;-54
2024/02/13 00:37:23;;;;;;;;;7.00;5.00;;;;;7.11;98.74;99418.37;112820;241;160888;-53
2024/02/13 00:40:05;;;;;;;;;7.00;5.00;;;;;7.11;98.69;99423.42;112937;242;40169;-53
2024/02/13 00:42:49;;;;;;;;;6.00;4.00;;;;;7.14;98.71;99424.89;112962;240;161731;-54
2024/02/13 00:45:34;;;;;;;;;8.00;4.25;;;;;7.15;98.51;99424.86;113108;241;39726;-54
2024/02/13 00:48:12;;;;;;;;;9.00;6.75;;;;;7.15;98.52;99424.48;113012;241;41185;-55
2024/02/13 00:50:49;;;;;;;;;4.00;3.50;;;;;7.14;98.48;99425.38;113003;241;39216;-55
2024/02/13 00:53:30;;;;;;;;;12.75;9.00;;;;;7.15;98.48;99426.02;112957;241;39454;-54
2024/02/13 00:56:07;;;;;;;;;7.67;4.67;;;;;7.14;98.50;99429.06;112778;241;161838;-51
2024/02/13 00:58:44;;;;;;;;;9.67;6.00;;;;;7.12;98.40;99432.27;112961;242;41206;-50
2024/02/13 01:01:23;;;;;;;;;9.00;6.00;;;;;7.11;98.33;99437.63;112934;240;160356;-50
2024/02/13 01:04:06;;;;;;;;;6.00;6.00;;;;;7.07;98.37;99439.73;113059;241;39936;-50
2024/02/13 01:06:43;;;;;;;;;7.25;5.00;;;;;7.03;98.14;99436.97;112867;241;160152;-52
2024/02/13 01:09:18;;;;;;;;;10.00;8.00;;;;;7.02;98.02;99439.83;112937;242;40979;-51
2024/02/13 01:11:53;;;;;;;;;7.00;6.00;;;;;7.01;97.98;99445.27;112972;242;39531;-52
2024/02/13 01:14:33;;;;;;;;;4.50;3.75;;;;;7.02;98.12;99443.55;112936;240;161174;-51
2024/02/13 01:17:08;;;;;;;;;6.75;5.25;;;;;7.02;98.07;99443.75;113044;241;41570;-51
2024/02/13 01:19:48;;;;;;;;;9.50;7.00;;;;;7.02;98.03;99446.66;112846;241;160691;-52
2024/02/13 01:22:28;;;;;;;;;8.50;6.00;;;;;7.01;98.26;99455.28;113000;242;39196;-55
2024/02/13 01:25:07;;;;;;;;;7.00;5.00;;;;;7.02;98.21;99452.68;112903;242;161019;-56
2024/02/13 01:27:42;;;;;;;;;12.00;9.00;;;;;7.05;98.28;99456.39;113080;241;40511;-55
2024/02/13 01:30:24;;;;;;;;;8.00;5.67;;;;;7.09;98.30;99458.72;112901;241;161496;-55
2024/02/13 01:33:01;;;;;;;;;8.00;7.00;;;;;7.10;98.51;99462.57;112944;242;39566;-52
2024/02/13 01:35:42;;;;;;;;;10.00;8.00;;;;;7.11;98.48;99466.95;112988;242;40808;-52
2024/02/13 01:38:22;;;;;;;;;7.00;6.00;;;;;7.06;98.70;99468.73;112916;240;161281;-55
2024/02/13 01:41:04;;;;;;;;;9.00;7.00;;;;;7.09;98.78;99475.94;113010;241;39192;-53
2024/02/13 01:43:41;;;;;;;;;10.00;8.00;;;;;7.11;98.70;99479.60;112833;241;160904;-55
2024/02/13 01:46:19;;;;;;;;;11.00;8.00;;;;;7.11;98.78;99485.84;112967;242;41107;-50
2024/02/13 01:48:56;;;;;;;;;7.50;6.00;;;;;7.12;98.84;99495.06;112842;240;161292;-50
2024/02/13 01:51:38;;;;;;;;;13.00;10.00;;;;;7.10;98.92;99496.48;113007;241;40092;-51
2024/02/13 01:54:26;;;;;;;;;7.00;6.00;;;;;7.04;99.06;99500.42;112990;241;39441;-51
2024/02/13 01:57:02;;;;;;;;;10.00;7.00;;;;;7.05;99.04;99502.45;113025;242;41682;-55
2024/02/13 01:59:49;;;;;;;;;9.00;6.75;;;;;7.02;98.80;99500.86;112995;242;40579;-55
2024/02/13 02:02:32;;;;;;;;;5.00;4.25;;;;;6.92;98.88;99502.42;112942;240;160922;-55
2024/02/13 02:05:11;;;;;;;;;7.00;5.25;;;;;6.91;98.74;99503.20;112947;241;39778;-53
2024/02/13 02:07:55;;;;;;;;;9.00;7.00;;;;;6.86;98.75;99506.80;112816;241;160583;-50
2024/02/13 02:10:31;;;;;;;;;6.00;5.00;;;;;6.79;98.57;99507.96;112963;242;39322;-50
2024/02/13 02:13:06;;;;;;;;;4.00;4.00;;;;;6.73;98.57;99510.55;112870;240;161075;-50
2024/02/13 02:15:45;;;;;;;;;4.00;3.00;;;;;6.63;98.77;99515.34;113051;241;38974;-51
2024/02/13 02:18:21;;;;;;;;;5.00;4.00;;;;;6.62;98.84;99517.02;112891;241;161106;-53
2024/02/13 02:20:56;;;;;;;;;4.50;4.00;;;;;6.63;98.85;99519.84;112950;242;40587;-52
2024/02/13 02:23:34;;;;;;;;;8.00;5.00;;;;;6.60;98.49;99520.90;113094;242;39269;-55
2024/02/13 02:26:13;;;;;;;;;4.00;3.00;;;;;6.58;98.31;99524.22;113046;240;160727;-51
2024/02/13 02:28:47;;;;;;;;;3.00;3.00;;;;;6.58;98.20;99524.85;112957;241;40791;-50
2024/02/13 02:31:28;;;;;;;;;3.00;3.00;;;;;6.55;97.92;99523.65;112789;241;160900;-53
2024/02/13 02:34:14;;;;;;;;;4.00;3.00;;;;;6.47;97.79;99531.58;112927;242;39415;-53
2024/02/13 02:36:56;;;;;;;;;6.00;5.00;;;;;6.49;98.06;99536.73;112804;240;161299;-53
2024/02/13 02:39:32;;;;;;;;;5.00;4.00;;;;;6.50;97.81;99536.51;112984;241;40117;-52
2024/02/13 02:42:09;;;;;;;;;4.00;3.00;;;;;6.46;97.75;99534.47;112940;241;39765;-53
2024/02/13 02:44:44;;;;;;;;;7.75;4.75;;;;;6.44;97.69;99534.64;112559;242;39685;-53
2024/02/13 02:47:22;;;;;;;;;5.00;4.00;;;;;6.44;97.47;99539.77;112971;242;41148;-54
2024/02/13 02:49:59;;;;;;;;;2.50;2.00;;;;;6.41;97.41;99541.00;112919;242;160149;-54
2024/02/13 02:52:44;;;;;;;;;5.00;4.00;;;;;6.38;97.43;99546.10;112996;241;39723;-54
2024/02/13 02:55:24;;;;;;;;;5.00;4.00;;;;;6.32;97.56;99551.45;112841;241;160048;-54
2024/02/13 02:58:03;;;;;;;;;2.25;2.00;;;;;6.29;97.47;99557.50;113069;242;39491;-55
2024/02/13 03:00:49;;;;;;;;;4.00;3.00;;;;;6.25;97.52;99563.05;112574;242;160959;-56
2024/02/13 03:03:28;;;;;;;;;4.50;4.00;;;;;6.22;97.64;99562.24;113144;241;40376;-55
2024/02/13 03:06:07;;;;;;;;;1.75;1.75;;;;;6.20;97.54;99563.77;113057;241;39582;-52
2024/02/13 03:08:50;;;;;;;;;3.00;3.00;;;;;6.21;97.24;99566.05;112796;241;160848;-53
2024/02/13 03:11:31;;;;;;;;;3.00;2.50;;;;;6.21;97.08;99572.97;112985;242;41012;-52
2024/02/13 03:14:11;;;;;;;;;2.00;2.00;;;;;6.21;96.64;99577.02;112830;240;161216;-52
2024/02/13 03:16:48;;;;;;;;;3.00;3.00;;;;;6.17;96.58;99583.08;112965;241;39760;-51
2024/02/13 03:19:28;;;;;;;;;7.00;6.00;;;;;6.16;96.52;99583.83;112791;241;160916;-50
2024/02/13 03:22:08;;;;;;;;;6.00;4.00;;;;;6.12;96.16;99585.04;112948;242;39279;-55
2024/02/13 03:24:47;;;;;;;;;4.00;3.00;;;;;6.09;96.14;99593.20;112891;240;160728;-54
2024/02/13 03:27:24;;;;;;;;;2.25;1.50;;;;;6.09;96.20;99592.86;113099;241;39890;-54
2024/02/13 03:30:06;;;;;;;;;4.00;3.00;;;;;6.03;95.93;99599.08;113024;241;39355;-55
2024/02/13 03:32:44;;;;;;;;;2.00;1.50;;;;;5.93;95.70;99597.95;112806;241;160161;-53
2024/02/13 03:35:21;;;;;;;;;3.00;3.00;;;;;5.87;95.60;99601.34;112927;242;39732;-54
2024/02/13 03:38:04;;;;;;;;;2.25;2.00;;;;;5.82;95.69;99607.44;112869;239;160886;-51
2024/02/13 03:40:44;;;;;;;;;1.75;1.75;;;;;5.78;95.56;99608.77;113020;241;39154;-55
2024/02/13 03:43:22;;;;;;;;;1.00;1.00;;;;;5.75;95.54;99613.46;112831;241;160981;-55
2024/02/13 03:45:59;;;;;;;;;2.75;2.00;;;;;5.71;95.45;99616.23;113017;242;39428;-52
2024/02/13 03:48:38;;;;;;;;;3.00;2.00;;;;;5.70;95.69;99621.36;112858;240;161124;-51
2024/02/13 03:51:13;;;;;;;;;3.00;2.00;;;;;5.74;95.55;99621.37;113027;241;40197;-51
2024/02/13 03:53:50;;;;;;;;;4.50;3.75;;;;;5.76;95.27;99629.23;112922;241;42609;-52
2024/02/13 03:56:30;;;;;;;;;1.00;1.00;;;;;5.69;95.08;99630.25;112814;241;161497;-51
2024/02/13 03:59:09;;;;;;;;;1.00;1.00;;;;;5.67;95.46;99630.86;112950;242;39282;-49
2024/02/13 04:01:46;;;;;;;;;2.00;2.00;;;;;5.65;95.43;99635.63;112791;240;160239;-51
2024/02/13 04:04:28;;;;;;;;;2.50;2.00;;;;;5.69;95.30;99642.38;112941;241;40916;-50
2024/02/13 04:07:05;;;;;;;;;3.00;2.00;;;;;5.62;95.27;99647.13;112782;241;160305;-50
2024/02/13 04:09:42;;;;;;;;;1.00;1.00;;;;;5.60;95.17;99652.13;112927;242;39386;-51
2024/02/13 04:12:21;;;;;;;;;3.00;3.00;;;;;5.61;95.05;99655.07;112429;242;552868;-52
2024/02/13 04:14:59;;;;;;;;;3.00;2.00;;;;;5.61;94.97;99655.52;112617;242;40020;-51
2024/02/13 04:17:41;;;;;;;;;3.00;2.00;;;;;5.58;95.02;99658.88;112932;242;40112;-53
2024/02/13 04:20:28;;;;;;;;;2.00;2.00;;;;;5.56;94.95;99665.38;112805;241;161088;-53
2024/02/13 04:23:06;;;;;;;;;4.00;3.00;;;;;5.54;94.90;99666.63;113034;242;40111;-54
2024/02/13 04:25:47;;;;;;;;;3.00;2.00;;;;;5.55;95.12;99673.52;112905;240;160944;-55
2024/02/13 04:28:27;;;;;;;;;2.00;2.00;;;;;5.52;95.03;99673.30;112974;241;40245;-50
2024/02/13 04:31:04;;;;;;;;;2.00;2.00;;;;;5.56;95.17;99680.38;112905;241;160975;-51
2024/02/13 04:33:44;;;;;;;;;2.00;1.00;;;;;5.60;94.91;99681.44;113009;241;39701;-50
2024/02/13 04:36:25;;;;;;;;;1.33;1.00;;;;;5.58;94.84;99685.26;113038;241;39625;-52
2024/02/13 04:39:07;;;;;;;;;2.00;1.00;;;;;5.58;94.77;99692.56;112622;242;39300;-52
2024/02/13 04:41:47;;;;;;;;;2.00;2.00;;;;;5.61;94.83;99696.90;112953;242;39378;-51
2024/02/13 04:44:27;;;;;;;;;1.67;1.00;;;;;5.57;94.77;99698.39;112779;241;160561;-50
2024/02/13 04:47:07;;;;;;;;;2.00;1.50;;;;;5.58;94.63;99701.54;112949;242;39869;-53
2024/02/13 04:49:44;;;;;;;;;1.75;1.00;;;;;5.55;94.71;99705.77;112793;241;160214;-54
2024/02/13 04:52:29;;;;;;;;;1.00;1.00;;;;;5.54;94.62;99715.22;112881;242;41581;-50
2024/02/13 04:55:08;;;;;;;;;3.00;2.00;;;;;5.54;94.36;99717.49;112852;240;160443;-50
2024/02/13 04:57:46;;;;;;;;;1.00;1.00;;;;;5.50;94.40;99724.28;113084;241;40424;-54
2024/02/13 05:00:25;;;;;;;;;5.00;3.00;;;;;5.43;94.56;99725.55;113033;241;39183;-55
2024/02/13 05:03:16;;;;;;;;;3.00;3.00;;;;;5.40;94.54;99731.11;112868;241;40585;-53
2024/02/13 05:08:58;;;;;;;;;1.00;1.00;;;;;5.28;94.75;99735.83;112919;241;39815;-55
2024/02/13 05:11:41;;;;;;;;;4.50;3.75;;;;;5.31;94.83;99741.39;113000;242;40927;-54
2024/02/13 05:14:25;;;;;;;;;4.75;4.00;;;;;5.31;94.98;99745.83;112784;241;161059;-52
2024/02/13 05:17:04;;;;;;;;;2.00;2.00;;;;;5.30;95.02;99747.84;113014;241;39755;-54
2024/02/13 05:19:45;;;;;;;;;1.00;1.00;;;;;5.34;95.00;99751.42;113041;240;161141;-54
2024/02/13 05:22:31;;;;;;;;;2.00;1.00;;;;;5.33;95.05;99757.67;113120;241;40385;-53
2024/02/13 05:25:07;;;;;;;;;2.00;2.00;;;;;5.34;95.12;99765.00;112870;241;162323;-53
2024/02/13 05:27:48;;;;;;;;;2.33;2.00;;;;;5.38;95.00;99766.70;113171;241;41549;-55
2024/02/13 05:30:28;;;;;;;;;3.00;2.33;;;;;5.39;95.04;99771.70;113075;241;40386;-55
2024/02/13 05:33:09;;;;;;;;;3.00;2.00;;;;;5.39;95.00;99778.48;112717;242;40550;-56
2024/02/13 05:35:49;;;;;;;;;2.00;2.00;;;;;5.42;95.08;99779.79;113025;242;39524;-55
2024/02/13 05:38:29;;;;;;;;;2.75;2.00;;;;;5.45;95.08;99787.51;112998;240;160960;-51
2024/02/13 05:41:08;;;;;;;;;2.25;2.00;;;;;5.44;95.00;99792.40;112977;241;39149;-54
2024/02/13 05:43:45;;;;;;;;;1.25;1.25;;;;;5.44;94.93;99792.09;112832;241;160784;-55
2024/02/13 05:46:21;;;;;;;;;1.00;1.00;;;;;5.45;94.97;99795.54;112985;242;39452;-53
2024/02/13 05:49:00;;;;;;;;;2.00;2.00;;;;;5.42;94.98;99802.88;112824;239;160325;-54
2024/02/13 05:51:42;;;;;;;;;1.00;1.00;;;;;5.39;94.91;99813.16;113089;242;39955;-53
2024/02/13 05:54:26;;;;;;;;;1.00;1.00;;;;;5.34;94.87;99817.02;112929;242;40725;-54
2024/02/13 05:57:01;;;;;;;;;1.00;1.00;;;;;5.32;94.96;99823.02;112930;243;39159;-50
2024/02/13 05:59:39;;;;;;;;;2.00;2.00;;;;;5.31;94.99;99829.79;112970;242;39067;-50
2024/02/13 06:02:13;;;;;;;;;1.00;1.00;;;;;5.28;94.94;99833.06;112818;239;161915;-50
2024/02/13 06:04:55;;;;;;;;;2.00;1.00;;;;;5.24;94.99;99839.56;112980;242;39636;-51
2024/02/13 06:07:33;;;;;;;;;3.00;2.00;;;;;5.24;95.14;99848.77;112985;239;160743;-55
2024/02/13 06:10:10;;;;;;;;;2.00;1.00;;;;;5.29;95.24;99854.02;113070;242;39498;-54
2024/02/13 06:12:50;;;;;;;;;3.00;3.00;;;;;5.30;95.48;99857.90;112902;239;161124;-56
2024/02/13 06:15:37;;;;;;;;;3.00;2.00;;;;;5.30;95.40;99870.73;112963;243;41032;-54
2024/02/13 06:18:17;;;;;;;;;2.00;2.00;;;;;5.34;95.49;99876.22;113011;243;40286;-56
2024/02/13 06:21:05;;;;;;;;;1.00;1.00;;;;;5.36;95.40;99875.75;112925;239;160769;-52
2024/02/13 06:23:49;;;;;;;;;2.00;1.00;;;;;5.40;95.45;99878.60;112946;242;39768;-50
2024/02/13 06:26:31;;;;;;;;;2.00;2.00;;;;;5.43;95.73;99881.69;112788;239;161172;-54
2024/02/13 06:29:15;;;;;;;;;3.00;3.00;;;;;5.49;95.59;99880.21;112924;243;40560;-53
2024/02/13 06:31:55;;;;;;;;;3.00;3.00;;;;;5.49;95.41;99885.08;112862;239;160812;-54
2024/02/13 06:34:33;;;;;;;;;6.33;5.00;;;;;5.50;95.46;99889.24;112969;242;39610;-54
2024/02/13 06:37:23;;;;;;;;;9.00;6.00;;;;;5.53;95.54;99895.49;112814;239;160404;-52
2024/02/13 06:40:04;;;;;;;;;6.00;5.00;;;;;5.55;95.50;99905.08;112885;242;40651;-54
2024/02/13 06:42:52;;;;;;;;;4.50;4.00;;;;;5.54;95.66;99906.33;112811;239;160578;-55
2024/02/13 06:45:34;;;;;;;;;2.00;2.00;;;;;5.53;95.74;99914.42;112997;242;40270;-55
2024/02/13 06:48:10;;;;;;;;;2.00;2.00;;;;;5.53;95.61;99920.02;112977;241;40523;-50
2024/02/13 06:50:49;;;;;;;;;3.00;1.75;;;;;5.54;95.61;99927.36;112801;241;160825;-50
2024/02/13 06:53:23;;;;;;;;;3.00;2.00;;;;;5.59;95.60;99931.42;112630;242;39675;-52
2024/02/13 06:56:06;;;;;;;;;5.00;3.00;;;;;5.62;95.67;99935.23;112860;242;162212;-52
2024/02/13 06:58:45;;;;;;;;;3.00;3.00;;;;;5.64;95.63;99937.37;113016;241;40942;-51
2024/02/13 07:01:24;;;;;;;;;2.00;2.00;;;;;5.69;95.50;99942.88;112833;241;160990;-50
2024/02/13 07:04:00;;;;;;;;;4.00;3.00;;;;;5.71;95.67;99946.77;112966;242;39430;-50
2024/02/13 07:06:39;;;;;;;;;2.00;2.00;;;;;5.76;95.77;99946.02;112804;240;161208;-54
2024/02/13 07:09:23;;;;;;;;;3.00;2.00;;;;;5.79;95.63;99951.32;113007;241;39928;-52
2024/02/13 07:12:05;;;;;;;;;5.00;4.00;;;;;5.83;95.56;99956.94;112902;241;39880;-51
2024/02/13 07:14:44;;;;;;;;;6.50;4.00;;;;;5.84;95.51;99963.69;112804;241;160134;-50
2024/02/13 07:17:23;;;;;;;;;4.00;3.00;;;;;5.83;95.61;99970.88;112995;242;39368;-51
2024/02/13 07:20:00;;;;;;;;;3.50;3.00;;;;;5.86;95.64;99976.27;112832;240;159977;-52
2024/02/13 07:22:42;;;;;;;;;7.00;4.00;;;;;5.89;95.63;99977.94;113050;241;39507;-49
2024/02/13 07:25:21;;;;;;;;;3.00;3.00;;;;;5.87;95.57;99979.74;112801;241;161252;-54
2024/02/13 07:27:58;;;;;;;;;4.00;3.50;;;;;5.87;95.79;99985.00;112959;242;40031;-50
2024/02/13 07:30:39;;;;;;;;;7.00;5.00;;;;;5.89;95.82;99987.95;112937;242;39738;-50
2024/02/13 07:33:21;;;;;;;;;5.33;4.00;;;;;5.99;95.84;99992.23;113269;242;39723;-54
2024/02/13 07:36:00;;;;;;;;;5.67;5.00;;;;;6.05;95.87;99995.33;112976;242;40100;-51
2024/02/13 07:38:39;;;;;;;;;7.00;5.00;;;;;6.08;95.86;99999.92;112830;239;162068;-50
2024/02/13 07:41:18;;;;;;;;;4.00;3.00;;;;;6.14;95.81;100000.55;112959;241;39372;-50
2024/02/13 07:43:58;;;;;;;;;4.00;3.00;;;;;6.22;95.74;100005.39;112830;240;161476;-50
2024/02/13 07:46:35;;;;;;;;;5.50;4.00;;;;;6.30;95.76;100009.09;112974;241;39317;-51
2024/02/13 07:49:14;;;;;;;;;5.00;4.00;;;;;6.36;95.85;100012.13;112949;239;161258;-52
2024/02/13 07:51:57;;;;;;;;;5.00;5.00;;;;;6.41;95.75;100008.56;112993;241;39671;-52
2024/02/13 07:54:35;;;;;;;;;6.00;4.75;;;;;6.48;95.82;100010.42;112978;241;40481;-52
2024/02/13 07:57:21;;;;;;;;;3.25;2.50;;;;;6.52;95.87;100011.23;112946;241;39336;-53
2024/02/13 07:59:59;;;;;;;;;5.33;4.00;;;;;6.59;95.59;100015.11;113024;241;41012;-54
2024/02/13 08:02:39;;;;;;;;;9.00;6.00;;;;;6.63;95.55;100016.40;112811;241;160418;-63
2024/02/13 08:05:20;;;;;;;;;6.25;5.00;;;;;6.67;95.42;100021.06;112938;242;39701;-51
2024/02/13 08:08:09;;;;;;;;;5.00;4.00;;;;;6.68;95.47;100025.59;112837;242;161295;-54
2024/02/13 08:10:47;;;;;;;;;8.00;7.00;;;;;6.70;95.53;100026.01;112946;241;40400;-53
2024/02/13 08:13:30;;;;;;;;;7.33;5.00;;;;;6.78;95.32;100028.29;112807;241;162252;-51
2024/02/13 08:16:09;;;;;;;;;7.00;4.00;;;;;6.85;95.37;100028.98;112924;242;39099;-54
2024/02/13 08:18:50;;;;;;;;;9.00;7.00;;;;;6.90;95.36;100035.36;112831;240;161531;-55
2024/02/13 08:21:28;;;;;;;;;8.00;6.00;;;;;6.95;95.29;100032.48;112917;241;40044;-55
2024/02/13 08:24:08;;;;;;;;;7.50;6.50;;;;;7.05;95.31;100038.94;112918;241;39327;-55
2024/02/13 08:26:43;;;;;;;;;7.00;6.00;;;;;7.10;95.17;100034.83;112805;241;160495;-52
2024/02/13 08:29:24;;;;;;;;;10.00;8.00;;;;;7.18;95.11;100030.39;112603;242;39526;-51
2024/02/13 08:32:06;;;;;;;;;5.00;4.00;;;;;7.22;95.10;100033.77;112861;240;161106;-55
2024/02/13 08:34:50;;;;;;;;;6.75;5.25;;;;;7.30;94.82;100031.11;112966;241;40057;-54
2024/02/13 08:37:26;;;;;;;;;8.00;6.00;;;;;7.34;94.77;100033.97;112849;241;161288;-52
2024/02/13 08:40:07;;;;;;;;;14.00;11.00;;;;;7.43;94.69;100034.77;112614;242;40080;-52
2024/02/13 08:42:44;;;;;;;;;8.00;6.00;;;;;7.51;94.78;100035.22;112870;240;161522;-50
2024/02/13 08:45:20;;;;;;;;;14.75;10.50;;;;;7.54;94.77;100034.40;113128;241;38987;-51
2024/02/13 08:47:55;;;;;;;;;13.00;9.00;;;;;7.53;94.61;100040.12;112960;241;41264;-50
2024/02/13 08:50:31;;;;;;;;;9.50;7.50;;;;;7.62;94.33;100044.89;112785;241;161591;-50
2024/02/13 08:53:09;;;;;;;;;15.25;10.75;;;;;7.59;94.15;100048.62;112943;242;40188;-50
2024/02/13 08:55:48;;;;;;;;;11.75;9.00;;;;;7.56;94.00;100054.85;112907;240;161984;-50
2024/02/13 08:58:32;;;;;;;;;9.00;6.25;;;;;7.53;94.03;100056.05;113002;241;39519;-55
2024/02/13 09:01:16;;;;;;;;;12.00;9.00;;;;;7.48;93.57;100059.15;112778;241;161226;-55
2024/02/13 09:03:54;;;;;;;;;7.33;6.00;;;;;7.44;93.44;100064.14;113044;241;39621;-55
2024/02/13 09:06:32;;;;;;;;;13.00;9.00;;;;;7.44;93.46;100068.48;113004;241;39817;-52
2024/02/13 09:09:11;;;;;;;;;12.00;9.00;;;;;7.43;93.60;100073.59;112600;242;40399;-53
2024/02/13 09:11:48;;;;;;;;;9.67;8.00;;;;;7.43;93.67;100075.23;112948;242;40886;-52
2024/02/13 09:14:31;;;;;;;;;10.50;9.25;;;;;7.45;93.58;100074.83;112970;240;160981;-51
2024/02/13 09:17:15;;;;;;;;;10.25;8.00;;;;;7.49;93.24;100075.16;113005;241;39979;-51
2024/02/13 09:19:56;;;;;;;;;11.00;8.00;;;;;7.44;93.08;100076.67;112840;241;161123;-51
2024/02/13 09:22:32;;;;;;;;;11.75;9.75;;;;;7.44;93.17;100084.33;113005;242;40264;-54
2024/02/13 09:25:12;;;;;;;;;13.00;9.00;;;;;7.50;92.69;100088.23;112887;240;161307;-56
2024/02/13 09:27:54;;;;;;;;;8.75;7.00;;;;;7.49;92.72;100092.39;113071;241;41092;-51
2024/02/13 09:30:33;;;;;;;;;9.00;7.00;;;;;7.47;92.65;100099.30;112981;241;39762;-52
2024/02/13 09:33:21;;;;;;;;;11.00;8.00;;;;;7.45;92.55;100102.23;112624;242;41248;-52
2024/02/13 09:36:05;;;;;;;;;8.50;6.00;;;;;7.37;92.56;100104.92;112974;242;40792;-55
2024/02/13 09:38:47;;;;;;;;;8.25;6.50;;;;;7.34;92.80;100107.27;112881;240;161080;-54
2024/02/13 09:41:28;;;;;;;;;9.00;7.00;;;;;7.39;92.44;100104.29;112978;241;40612;-55
2024/02/13 09:44:10;;;;;;;;;11.00;7.00;;;;;7.41;92.47;100113.78;112807;241;161212;-53
2024/02/13 09:46:48;;;;;;;;;10.00;7.00;;;;;7.50;92.68;100113.66;112955;242;40197;-52
2024/02/13 09:49:28;;;;;;;;;9.00;7.00;;;;;7.63;92.74;100113.73;112830;240;161452;-53
2024/02/13 09:52:17;;;;;;;;;8.75;7.00;;;;;7.63;92.25;100117.70;112971;241;39902;-56
2024/02/13 09:54:57;;;;;;;;;12.00;9.00;;;;;7.62;92.13;100123.63;112862;241;161798;-56
2024/02/13 09:57:34;;;;;;;;;13.25;10.25;;;;;7.69;91.79;100120.83;112911;242;40119;-55
2024/02/13 10:00:15;;;;;;;;;10.00;9.00;;;;;7.69;91.40;100128.03;112977;242;38924;-55
2024/02/13 10:02:52;;;;;;;;;10.00;8.00;;;;;7.69;91.71;100135.08;112707;241;160413;-56
2024/02/13 10:05:36;;;;;;;;;10.50;8.50;;;;;7.74;91.84;100139.36;113016;242;39802;-56
2024/02/13 10:08:27;;;;;;;;;8.00;6.50;;;;;7.72;91.80;100147.20;112808;240;160592;-53
2024/02/13 10:11:08;;;;;;;;;10.00;7.00;;;;;7.83;91.88;100147.55;113030;242;39316;-53
2024/02/13 10:13:48;;;;;;;;;14.00;10.00;;;;;7.92;91.29;100147.24;112827;241;161319;-52
2024/02/13 10:16:30;;;;;;;;;8.75;6.00;;;;;7.88;90.75;100146.96;112977;242;39732;-54
2024/02/13 10:19:11;;;;;;;;;12.00;10.00;;;;;7.86;90.90;100149.39;112871;240;161379;-55
2024/02/13 10:21:53;;;;;;;;;12.00;9.00;;;;;7.82;91.12;100157.39;113000;241;41195;-52
2024/02/13 10:24:33;;;;;;;;;12.67;10.00;;;;;7.87;90.92;100155.05;112974;241;39987;-60
2024/02/13 10:27:18;;;;;;;;;11.75;9.25;;;;;7.84;90.88;100157.92;112733;242;40016;-54
2024/02/13 10:30:01;;;;;;;;;10.00;8.00;;;;;7.84;90.71;100159.34;112918;242;39698;-55
2024/02/13 10:32:47;;;;;;;;;13.00;10.00;;;;;7.83;90.58;100164.45;112416;242;160727;-55
2024/02/13 10:35:29;;;;;;;;;11.75;8.75;;;;;7.89;90.60;100172.70;112641;242;41086;-56
2024/02/13 10:38:11;;;;;;;;;12.67;9.33;;;;;7.91;90.61;100170.02;112810;241;160665;-54
2024/02/13 10:40:58;;;;;;;;;12.00;9.75;;;;;7.93;90.46;100164.36;112973;242;39587;-54
2024/02/13 10:43:38;;;;;;;;;14.00;11.00;;;;;7.96;90.29;100165.05;112854;242;160398;-55
2024/02/13 10:46:16;;;;;;;;;10.50;7.75;;;;;7.94;90.28;100165.45;113063;241;40734;-53
2024/02/13 10:49:05;;;;;;;;;11.50;9.00;;;;;7.94;90.42;100177.48;112824;241;160735;-54
2024/02/13 10:51:46;;;;;;;;;13.00;10.00;;;;;7.86;90.08;100189.70;112913;242;41206;-55
2024/02/13 10:54:24;;;;;;;;;12.33;9.67;;;;;7.84;90.07;100189.70;112970;242;40463;-55
2024/02/13 10:57:06;;;;;;;;;14.00;11.00;;;;;7.83;89.97;100191.00;112895;240;161119;-50
2024/02/13 10:59:46;;;;;;;;;14.00;10.00;;;;;7.90;90.26;100190.66;112982;241;39652;-50
2024/02/13 11:02:24;;;;;;;;;10.75;8.00;;;;;8.09;90.14;100189.23;112738;241;161470;-56
2024/02/13 11:05:06;;;;;;;;;9.75;7.00;;;;;8.27;90.12;100190.59;112978;242;39377;-55
2024/02/13 11:07:51;;;;;;;;;12.50;10.00;;;;;8.60;90.09;100184.58;112812;240;160577;-51
2024/02/13 11:10:41;;;;;;;;;16.75;13.50;;;;;8.87;89.79;100183.08;112975;241;39635;-51
2024/02/13 11:13:23;;;;;;;;;11.00;8.00;;;;;8.96;88.75;100179.83;112805;241;161129;-54
2024/02/13 11:16:00;;;;;;;;;17.00;11.75;;;;;8.95;88.53;100184.52;112923;242;40510;-55
2024/02/13 11:18:49;;;;;;;;;17.00;11.25;;;;;8.96;88.40;100188.55;112957;242;40289;-55
2024/02/13 11:21:40;;;;;;;;;14.50;10.50;;;;;8.88;88.01;100191.69;112946;242;40385;-54
2024/02/13 11:24:24;;;;;;;;;13.00;9.67;;;;;8.80;87.30;100192.13;112930;242;39291;-54
2024/02/13 11:27:06;;;;;;;;;14.00;11.25;;;;;8.67;87.13;100198.66;112820;240;162270;-50
2024/02/13 11:29:57;;;;;;;;;14.00;10.00;;;;;8.49;87.36;100209.42;112953;241;40338;-52
2024/02/13 11:32:39;;;;;;;;;15.00;12.00;;;;;8.23;87.83;100223.95;112767;241;160915;-52
2024/02/13 11:35:23;;;;;;;;;3.00;2.50;;;;;7.80;87.70;100227.71;112973;242;39600;-51
2024/02/13 11:38:15;;;;;;;;;10.25;7.50;;;;;7.32;88.23;100231.27;112924;240;162310;-55
2024/02/13 11:41:02;;;;;;;;;8.00;7.00;;;;;7.09;88.85;100231.67;113043;241;40285;-53
2024/02/13 11:43:50;;;;;;;;;6.00;4.00;;;;;6.91;89.46;100230.66;112823;241;161183;-50
2024/02/13 11:46:30;;;;;;;;;5.00;4.50;;;;;6.80;90.04;100236.20;112959;242;39794;-53
2024/02/13 11:49:10;;;;;;;;;6.25;5.00;;;;;6.81;90.40;100244.73;112789;241;161306;-53
2024/02/13 11:51:54;;;;;;;;;11.00;8.00;;;;;6.78;90.93;100246.45;112946;242;39587;-53
2024/02/13 11:54:32;;;;;;;;;7.00;6.00;;;;;6.71;90.97;100249.48;112996;242;40639;-53
2024/02/13 11:57:09;;;;;;;;;7.00;6.00;;;;;6.71;91.56;100251.39;112773;241;161008;-51
2024/02/13 11:59:44;;;;;;;;;4.50;3.50;;;;;6.77;91.75;100253.45;112930;242;39638;-51
2024/02/13 12:02:24;;;;;;;;;6.00;5.00;;;;;6.88;91.99;100252.54;112553;241;161217;-50
2024/02/13 12:05:01;;;;;;;;;7.00;5.00;;;;;6.95;92.31;100253.41;112875;242;40939;-50
2024/02/13 12:07:41;;;;;;;;;6.67;5.00;;;;;7.04;92.55;100255.55;112835;241;161556;-51
2024/02/13 12:10:19;;;;;;;;;12.00;8.00;;;;;7.16;92.75;100254.89;112929;242;39728;-51
2024/02/13 12:12:57;;;;;;;;;7.25;6.00;;;;;7.37;92.81;100252.92;112336;242;555929;-50
2024/02/13 12:15:34;;;;;;;;;8.00;7.00;;;;;7.48;92.77;100258.55;112913;242;39478;-50
2024/02/13 12:18:13;;;;;;;;;7.00;5.00;;;;;7.57;92.89;100259.53;112993;242;39615;-51
2024/02/13 12:20:52;;;;;;;;;6.00;5.00;;;;;7.62;92.72;100254.85;112799;241;160496;-51
2024/02/13 12:23:30;;;;;;;;;8.50;6.00;;;;;7.68;92.73;100258.98;112962;242;39692;-55
2024/02/13 12:26:11;;;;;;;;;9.50;7.00;;;;;7.76;92.57;100261.18;112823;241;160445;-54
2024/02/13 12:28:59;;;;;;;;;8.00;5.00;;;;;7.67;92.13;100258.59;112965;242;39542;-55
2024/02/13 12:31:40;;;;;;;;;8.50;6.00;;;;;7.70;91.86;100258.82;112784;241;161247;-55
2024/02/13 12:34:18;;;;;;;;;7.00;5.00;;;;;7.69;91.57;100259.35;112988;242;40424;-55